Plantation, Florida
Current Conditions -  °F | °C
As of 1:53 PM on Friday 24 Oct 2014 (Local Time) from KFXE Reporting Station
Broken Clouds Broken Clouds  
Wind Chill: 79°   Ceiling: 5000
Heat Index: 81°   Visibility: 10mi
Dew Point: 67°   Wind: 15mph
Humidity: 66%   Direction: 30°NNE
Pressure: 29.85"   Gusts: 24mph
Location:  26.13°N, 80.24°W
Report Text: KFXE 241753Z 03013G21KT 10SM SCT044 BKN050 26/19 A2985 RMK AO2 SLP110 60000 T02610194 10261 20250 58016
Loading
Personal Weather Stations






























Interactive Weather Map
Tropical Storm Tracking
New forecast layout! Learn more

10-Day Weather Forecast

Advertisements
Track Severe Weather on mobile